sensor_id;sensor_type;location;lat;lon;timestamp;P1;durP1;ratioP1;P2;durP2;ratioP2
43256;SDS011;28860;43.212;27.934;2023-08-07T00:00:49;5.75;;;3.40;;
43256;SDS011;28860;43.212;27.934;2023-08-07T00:03:15;8.18;;;3.67;;
43256;SDS011;28860;43.212;27.934;2023-08-07T00:05:49;5.35;;;3.67;;
43256;SDS011;28860;43.212;27.934;2023-08-07T00:08:17;5.97;;;3.40;;
43256;SDS011;28860;43.212;27.934;2023-08-07T00:10:43;6.07;;;3.50;;
43256;SDS011;28860;43.212;27.934;2023-08-07T00:13:08;7.10;;;3.75;;
43256;SDS011;28860;43.212;27.934;2023-08-07T00:15:34;7.10;;;4.38;;
43256;SDS011;28860;43.212;27.934;2023-08-07T00:18:03;5.63;;;3.83;;
43256;SDS011;28860;43.212;27.934;2023-08-07T00:20:28;5.15;;;3.40;;
43256;SDS011;28860;43.212;27.934;2023-08-07T00:22:54;6.68;;;3.92;;
43256;SDS011;28860;43.212;27.934;2023-08-07T00:25:19;4.00;;;3.60;;
43256;SDS011;28860;43.212;27.934;2023-08-07T00:27:45;6.72;;;4.03;;
43256;SDS011;28860;43.212;27.934;2023-08-07T00:30:11;6.85;;;3.80;;
43256;SDS011;28860;43.212;27.934;2023-08-07T00:32:37;7.05;;;4.15;;
43256;SDS011;28860;43.212;27.934;2023-08-07T00:35:02;5.53;;;4.30;;
43256;SDS011;28860;43.212;27.934;2023-08-07T00:37:29;7.60;;;4.20;;
43256;SDS011;28860;43.212;27.934;2023-08-07T00:39:57;6.45;;;4.47;;
43256;SDS011;28860;43.212;27.934;2023-08-07T00:42:26;7.10;;;4.15;;
43256;SDS011;28860;43.212;27.934;2023-08-07T00:44:51;5.50;;;4.25;;
43256;SDS011;28860;43.212;27.934;2023-08-07T00:47:17;6.47;;;4.88;;
43256;SDS011;28860;43.212;27.934;2023-08-07T00:49:43;12.18;;;5.43;;
43256;SDS011;28860;43.212;27.934;2023-08-07T00:52:12;10.18;;;5.00;;
43256;SDS011;28860;43.212;27.934;2023-08-07T00:54:38;6.70;;;5.50;;
43256;SDS011;28860;43.212;27.934;2023-08-07T00:57:10;9.45;;;4.93;;
43256;SDS011;28860;43.212;27.934;2023-08-07T00:59:38;8.80;;;5.68;;
43256;SDS011;28860;43.212;27.934;2023-08-07T01:02:04;7.47;;;5.75;;
43256;SDS011;28860;43.212;27.934;2023-08-07T01:04:31;8.77;;;6.03;;
43256;SDS011;28860;43.212;27.934;2023-08-07T01:06:57;7.65;;;5.95;;
43256;SDS011;28860;43.212;27.934;2023-08-07T01:09:23;7.93;;;6.53;;
43256;SDS011;28860;43.212;27.934;2023-08-07T01:12:02;7.95;;;6.55;;
43256;SDS011;28860;43.212;27.934;2023-08-07T01:14:37;12.02;;;7.18;;
43256;SDS011;28860;43.212;27.934;2023-08-07T01:17:14;16.88;;;7.30;;
43256;SDS011;28860;43.212;27.934;2023-08-07T01:19:41;12.18;;;7.65;;
43256;SDS011;28860;43.212;27.934;2023-08-07T01:24:33;7.53;;;6.78;;
43256;SDS011;28860;43.212;27.934;2023-08-07T01:27:07;11.00;;;7.22;;
43256;SDS011;28860;43.212;27.934;2023-08-07T01:32:22;11.40;;;7.28;;
43256;SDS011;28860;43.212;27.934;2023-08-07T01:34:54;13.23;;;8.13;;
43256;SDS011;28860;43.212;27.934;2023-08-07T01:37:21;11.32;;;7.78;;
43256;SDS011;28860;43.212;27.934;2023-08-07T01:39:49;13.93;;;8.43;;
43256;SDS011;28860;43.212;27.934;2023-08-07T01:42:18;10.82;;;7.63;;
43256;SDS011;28860;43.212;27.934;2023-08-07T01:44:44;9.90;;;7.80;;
43256;SDS011;28860;43.212;27.934;2023-08-07T01:47:10;10.80;;;8.60;;
43256;SDS011;28860;43.212;27.934;2023-08-07T01:49:35;10.68;;;8.00;;
43256;SDS011;28860;43.212;27.934;2023-08-07T01:52:03;9.40;;;8.07;;
43256;SDS011;28860;43.212;27.934;2023-08-07T01:54:29;9.73;;;8.50;;
43256;SDS011;28860;43.212;27.934;2023-08-07T01:56:55;10.43;;;7.70;;
43256;SDS011;28860;43.212;27.934;2023-08-07T01:59:21;11.50;;;8.35;;
43256;SDS011;28860;43.212;27.934;2023-08-07T02:01:46;11.70;;;8.80;;
43256;SDS011;28860;43.212;27.934;2023-08-07T02:04:12;10.48;;;8.05;;
43256;SDS011;28860;43.212;27.934;2023-08-07T02:06:38;9.80;;;7.72;;
43256;SDS011;28860;43.212;27.934;2023-08-07T02:09:03;16.25;;;8.07;;
43256;SDS011;28860;43.212;27.934;2023-08-07T02:11:31;14.80;;;8.30;;
43256;SDS011;28860;43.212;27.934;2023-08-07T02:14:01;14.55;;;8.40;;
43256;SDS011;28860;43.212;27.934;2023-08-07T02:16:28;11.73;;;7.55;;
43256;SDS011;28860;43.212;27.934;2023-08-07T02:18:53;11.80;;;7.70;;
43256;SDS011;28860;43.212;27.934;2023-08-07T02:21:21;10.98;;;7.47;;
43256;SDS011;28860;43.212;27.934;2023-08-07T02:23:47;10.27;;;7.70;;
43256;SDS011;28860;43.212;27.934;2023-08-07T02:26:15;10.07;;;7.85;;
43256;SDS011;28860;43.212;27.934;2023-08-07T02:28:41;9.63;;;7.13;;
43256;SDS011;28860;43.212;27.934;2023-08-07T02:31:06;9.32;;;7.72;;
43256;SDS011;28860;43.212;27.934;2023-08-07T02:33:32;8.98;;;7.35;;
43256;SDS011;28860;43.212;27.934;2023-08-07T02:36:00;13.20;;;7.65;;
43256;SDS011;28860;43.212;27.934;2023-08-07T02:38:26;13.70;;;7.13;;
43256;SDS011;28860;43.212;27.934;2023-08-07T02:40:54;11.55;;;7.20;;
43256;SDS011;28860;43.212;27.934;2023-08-07T02:43:22;7.57;;;6.22;;
43256;SDS011;28860;43.212;27.934;2023-08-07T02:45:51;8.65;;;7.03;;
43256;SDS011;28860;43.212;27.934;2023-08-07T02:48:19;8.75;;;6.70;;
43256;SDS011;28860;43.212;27.934;2023-08-07T02:50:45;11.75;;;7.20;;
43256;SDS011;28860;43.212;27.934;2023-08-07T02:53:10;15.63;;;6.97;;
43256;SDS011;28860;43.212;27.934;2023-08-07T02:55:36;14.85;;;6.75;;
43256;SDS011;28860;43.212;27.934;2023-08-07T02:58:06;12.75;;;7.30;;
43256;SDS011;28860;43.212;27.934;2023-08-07T03:00:34;16.45;;;6.90;;
43256;SDS011;28860;43.212;27.934;2023-08-07T03:03:00;16.65;;;7.43;;
43256;SDS011;28860;43.212;27.934;2023-08-07T03:05:28;14.05;;;6.43;;
43256;SDS011;28860;43.212;27.934;2023-08-07T03:07:59;11.10;;;6.47;;
43256;SDS011;28860;43.212;27.934;2023-08-07T03:10:27;10.63;;;6.10;;
43256;SDS011;28860;43.212;27.934;2023-08-07T03:12:53;8.82;;;6.28;;
43256;SDS011;28860;43.212;27.934;2023-08-07T03:15:19;8.68;;;5.95;;
43256;SDS011;28860;43.212;27.934;2023-08-07T03:17:44;8.05;;;6.18;;
43256;SDS011;28860;43.212;27.934;2023-08-07T03:20:10;9.18;;;6.75;;
43256;SDS011;28860;43.212;27.934;2023-08-07T03:22:36;12.20;;;6.22;;
43256;SDS011;28860;43.212;27.934;2023-08-07T03:25:05;7.90;;;5.57;;
43256;SDS011;28860;43.212;27.934;2023-08-07T03:27:31;10.25;;;5.88;;
43256;SDS011;28860;43.212;27.934;2023-08-07T03:29:57;9.48;;;5.60;;
43256;SDS011;28860;43.212;27.934;2023-08-07T03:32:22;8.35;;;5.90;;
43256;SDS011;28860;43.212;27.934;2023-08-07T03:34:48;8.45;;;5.53;;
43256;SDS011;28860;43.212;27.934;2023-08-07T03:37:14;17.55;;;5.68;;
43256;SDS011;28860;43.212;27.934;2023-08-07T03:39:39;9.88;;;5.38;;
43256;SDS011;28860;43.212;27.934;2023-08-07T03:42:05;7.85;;;5.40;;
43256;SDS011;28860;43.212;27.934;2023-08-07T03:44:31;8.55;;;5.47;;
43256;SDS011;28860;43.212;27.934;2023-08-07T03:46:58;5.57;;;5.05;;
43256;SDS011;28860;43.212;27.934;2023-08-07T03:49:26;11.00;;;5.20;;
43256;SDS011;28860;43.212;27.934;2023-08-07T03:51:52;6.20;;;5.22;;
43256;SDS011;28860;43.212;27.934;2023-08-07T03:54:17;8.25;;;5.07;;
43256;SDS011;28860;43.212;27.934;2023-08-07T03:56:43;5.82;;;5.22;;
43256;SDS011;28860;43.212;27.934;2023-08-07T03:59:09;6.40;;;4.78;;
43256;SDS011;28860;43.212;27.934;2023-08-07T04:01:34;8.18;;;4.93;;
43256;SDS011;28860;43.212;27.934;2023-08-07T04:04:02;12.18;;;4.95;;
43256;SDS011;28860;43.212;27.934;2023-08-07T04:06:28;10.43;;;4.82;;
43256;SDS011;28860;43.212;27.934;2023-08-07T04:08:54;5.55;;;4.60;;
43256;SDS011;28860;43.212;27.934;2023-08-07T04:11:20;7.20;;;4.88;;
43256;SDS011;28860;43.212;27.934;2023-08-07T04:13:45;6.00;;;4.65;;
43256;SDS011;28860;43.212;27.934;2023-08-07T04:16:11;5.10;;;4.22;;
43256;SDS011;28860;43.212;27.934;2023-08-07T04:18:36;11.65;;;4.55;;
43256;SDS011;28860;43.212;27.934;2023-08-07T04:21:04;8.68;;;4.43;;
43256;SDS011;28860;43.212;27.934;2023-08-07T04:23:30;5.38;;;3.42;;
43256;SDS011;28860;43.212;27.934;2023-08-07T04:25:56;11.63;;;4.03;;
43256;SDS011;28860;43.212;27.934;2023-08-07T04:28:27;6.43;;;3.83;;
43256;SDS011;28860;43.212;27.934;2023-08-07T04:30:53;12.57;;;3.60;;
43256;SDS011;28860;43.212;27.934;2023-08-07T04:33:19;7.95;;;3.97;;
43256;SDS011;28860;43.212;27.934;2023-08-07T04:35:46;10.82;;;3.72;;
43256;SDS011;28860;43.212;27.934;2023-08-07T04:38:12;8.93;;;4.05;;
43256;SDS011;28860;43.212;27.934;2023-08-07T04:40:45;8.43;;;3.50;;
43256;SDS011;28860;43.212;27.934;2023-08-07T04:43:16;8.65;;;3.55;;
43256;SDS011;28860;43.212;27.934;2023-08-07T04:45:42;5.93;;;3.47;;
43256;SDS011;28860;43.212;27.934;2023-08-07T04:48:13;5.78;;;3.63;;
43256;SDS011;28860;43.212;27.934;2023-08-07T04:50:39;4.35;;;3.20;;
43256;SDS011;28860;43.212;27.934;2023-08-07T04:53:06;10.90;;;3.20;;
43256;SDS011;28860;43.212;27.934;2023-08-07T04:55:32;6.78;;;3.20;;
43256;SDS011;28860;43.212;27.934;2023-08-07T04:57:58;6.90;;;3.08;;
43256;SDS011;28860;43.212;27.934;2023-08-07T05:00:24;12.43;;;3.42;;
43256;SDS011;28860;43.212;27.934;2023-08-07T05:02:50;9.65;;;3.05;;
43256;SDS011;28860;43.212;27.934;2023-08-07T05:05:16;4.38;;;3.00;;
43256;SDS011;28860;43.212;27.934;2023-08-07T05:07:47;7.63;;;3.30;;
43256;SDS011;28860;43.212;27.934;2023-08-07T05:10:14;4.10;;;2.90;;
43256;SDS011;28860;43.212;27.934;2023-08-07T05:12:39;10.82;;;3.20;;
43256;SDS011;28860;43.212;27.934;2023-08-07T05:15:05;4.00;;;2.60;;
43256;SDS011;28860;43.212;27.934;2023-08-07T05:17:36;10.82;;;3.05;;
43256;SDS011;28860;43.212;27.934;2023-08-07T05:20:02;11.07;;;3.03;;
43256;SDS011;28860;43.212;27.934;2023-08-07T05:22:28;5.40;;;3.00;;
43256;SDS011;28860;43.212;27.934;2023-08-07T05:24:54;9.90;;;2.88;;
43256;SDS011;28860;43.212;27.934;2023-08-07T05:27:23;5.60;;;2.20;;
43256;SDS011;28860;43.212;27.934;2023-08-07T05:29:48;13.10;;;2.97;;
43256;SDS011;28860;43.212;27.934;2023-08-07T05:32:14;9.77;;;2.67;;
43256;SDS011;28860;43.212;27.934;2023-08-07T05:34:40;5.88;;;2.17;;
43256;SDS011;28860;43.212;27.934;2023-08-07T05:37:06;4.60;;;2.80;;
43256;SDS011;28860;43.212;27.934;2023-08-07T05:39:33;50.83;;;4.22;;
43256;SDS011;28860;43.212;27.934;2023-08-07T05:41:59;13.77;;;3.03;;
43256;SDS011;28860;43.212;27.934;2023-08-07T05:44:25;70.80;;;4.32;;
43256;SDS011;28860;43.212;27.934;2023-08-07T05:46:51;3.55;;;2.10;;
43256;SDS011;28860;43.212;27.934;2023-08-07T05:49:21;2.42;;;1.65;;
43256;SDS011;28860;43.212;27.934;2023-08-07T05:51:47;7.90;;;2.13;;
43256;SDS011;28860;43.212;27.934;2023-08-07T05:54:12;10.02;;;2.42;;
43256;SDS011;28860;43.212;27.934;2023-08-07T05:56:38;10.45;;;1.98;;
43256;SDS011;28860;43.212;27.934;2023-08-07T05:59:04;47.95;;;4.07;;
43256;SDS011;28860;43.212;27.934;2023-08-07T06:01:32;9.70;;;1.95;;
43256;SDS011;28860;43.212;27.934;2023-08-07T06:03:58;6.55;;;2.13;;
43256;SDS011;28860;43.212;27.934;2023-08-07T06:06:27;3.05;;;1.75;;
43256;SDS011;28860;43.212;27.934;2023-08-07T06:08:59;7.78;;;2.28;;
43256;SDS011;28860;43.212;27.934;2023-08-07T06:11:28;9.88;;;2.42;;
43256;SDS011;28860;43.212;27.934;2023-08-07T06:13:53;5.00;;;1.98;;
43256;SDS011;28860;43.212;27.934;2023-08-07T06:16:19;11.45;;;2.00;;
43256;SDS011;28860;43.212;27.934;2023-08-07T06:18:45;12.32;;;1.85;;
43256;SDS011;28860;43.212;27.934;2023-08-07T06:21:11;23.70;;;2.28;;
43256;SDS011;28860;43.212;27.934;2023-08-07T06:23:36;13.80;;;2.22;;
43256;SDS011;28860;43.212;27.934;2023-08-07T06:26:04;15.75;;;2.08;;
43256;SDS011;28860;43.212;27.934;2023-08-07T06:28:33;23.70;;;2.10;;
43256;SDS011;28860;43.212;27.934;2023-08-07T06:31:02;3.47;;;1.42;;
43256;SDS011;28860;43.212;27.934;2023-08-07T06:33:30;8.18;;;1.70;;
43256;SDS011;28860;43.212;27.934;2023-08-07T06:35:57;7.43;;;1.80;;
43256;SDS011;28860;43.212;27.934;2023-08-07T06:38:23;16.33;;;2.47;;
43256;SDS011;28860;43.212;27.934;2023-08-07T06:40:48;6.00;;;1.50;;
43256;SDS011;28860;43.212;27.934;2023-08-07T06:43:14;8.88;;;1.73;;
43256;SDS011;28860;43.212;27.934;2023-08-07T06:45:42;142.98;;;8.25;;
43256;SDS011;28860;43.212;27.934;2023-08-07T06:48:08;11.70;;;2.20;;
43256;SDS011;28860;43.212;27.934;2023-08-07T06:50:42;5.45;;;1.60;;
43256;SDS011;28860;43.212;27.934;2023-08-07T06:53:08;8.30;;;1.92;;
43256;SDS011;28860;43.212;27.934;2023-08-07T06:55:33;12.50;;;2.08;;
43256;SDS011;28860;43.212;27.934;2023-08-07T06:58:02;17.65;;;1.85;;
43256;SDS011;28860;43.212;27.934;2023-08-07T07:00:30;6.00;;;1.65;;
43256;SDS011;28860;43.212;27.934;2023-08-07T07:02:57;53.92;;;4.18;;
43256;SDS011;28860;43.212;27.934;2023-08-07T07:05:23;5.03;;;1.65;;
43256;SDS011;28860;43.212;27.934;2023-08-07T07:07:48;13.98;;;2.03;;
43256;SDS011;28860;43.212;27.934;2023-08-07T07:10:16;7.97;;;1.73;;
43256;SDS011;28860;43.212;27.934;2023-08-07T07:12:42;6.53;;;1.42;;
43256;SDS011;28860;43.212;27.934;2023-08-07T07:15:08;13.63;;;1.90;;
43256;SDS011;28860;43.212;27.934;2023-08-07T07:17:34;208.35;;;9.05;;
43256;SDS011;28860;43.212;27.934;2023-08-07T07:20:00;11.68;;;1.80;;
43256;SDS011;28860;43.212;27.934;2023-08-07T07:22:26;8.32;;;1.63;;
43256;SDS011;28860;43.212;27.934;2023-08-07T07:24:53;5.38;;;1.70;;
43256;SDS011;28860;43.212;27.934;2023-08-07T07:27:19;10.55;;;2.25;;
43256;SDS011;28860;43.212;27.934;2023-08-07T07:29:47;7.35;;;1.40;;
43256;SDS011;28860;43.212;27.934;2023-08-07T07:32:15;13.23;;;1.42;;
43256;SDS011;28860;43.212;27.934;2023-08-07T07:34:41;15.70;;;1.77;;
43256;SDS011;28860;43.212;27.934;2023-08-07T07:37:07;3.72;;;1.70;;
43256;SDS011;28860;43.212;27.934;2023-08-07T07:39:34;3.13;;;1.40;;
43256;SDS011;28860;43.212;27.934;2023-08-07T07:42:00;4.53;;;1.60;;
43256;SDS011;28860;43.212;27.934;2023-08-07T07:44:28;3.97;;;1.63;;
43256;SDS011;28860;43.212;27.934;2023-08-07T07:46:54;16.73;;;2.08;;
43256;SDS011;28860;43.212;27.934;2023-08-07T07:49:20;4.53;;;1.38;;
43256;SDS011;28860;43.212;27.934;2023-08-07T07:51:45;7.53;;;1.70;;
43256;SDS011;28860;43.212;27.934;2023-08-07T07:54:17;13.70;;;1.73;;
43256;SDS011;28860;43.212;27.934;2023-08-07T07:56:42;6.05;;;1.50;;
43256;SDS011;28860;43.212;27.934;2023-08-07T07:59:08;15.50;;;1.75;;
43256;SDS011;28860;43.212;27.934;2023-08-07T08:01:34;23.55;;;1.75;;
43256;SDS011;28860;43.212;27.934;2023-08-07T08:04:03;11.80;;;2.08;;
43256;SDS011;28860;43.212;27.934;2023-08-07T08:06:35;10.32;;;1.50;;
43256;SDS011;28860;43.212;27.934;2023-08-07T08:09:01;17.88;;;2.25;;
43256;SDS011;28860;43.212;27.934;2023-08-07T08:11:29;1.67;;;1.48;;
43256;SDS011;28860;43.212;27.934;2023-08-07T08:13:58;4.32;;;1.50;;
43256;SDS011;28860;43.212;27.934;2023-08-07T08:16:24;7.35;;;1.60;;
43256;SDS011;28860;43.212;27.934;2023-08-07T08:18:50;8.38;;;1.92;;
43256;SDS011;28860;43.212;27.934;2023-08-07T08:21:18;9.40;;;1.63;;
43256;SDS011;28860;43.212;27.934;2023-08-07T08:23:43;6.80;;;1.95;;
43256;SDS011;28860;43.212;27.934;2023-08-07T08:26:09;7.25;;;1.83;;
43256;SDS011;28860;43.212;27.934;2023-08-07T08:28:35;3.35;;;1.48;;
43256;SDS011;28860;43.212;27.934;2023-08-07T08:31:00;25.25;;;1.80;;
43256;SDS011;28860;43.212;27.934;2023-08-07T08:33:29;2.72;;;1.33;;
43256;SDS011;28860;43.212;27.934;2023-08-07T08:36:01;5.55;;;1.42;;
43256;SDS011;28860;43.212;27.934;2023-08-07T08:38:29;9.27;;;1.40;;
43256;SDS011;28860;43.212;27.934;2023-08-07T08:41:02;6.05;;;1.30;;
43256;SDS011;28860;43.212;27.934;2023-08-07T08:43:29;13.60;;;1.60;;
43256;SDS011;28860;43.212;27.934;2023-08-07T08:46:06;60.63;;;4.90;;
43256;SDS011;28860;43.212;27.934;2023-08-07T08:48:37;278.98;;;14.93;;
43256;SDS011;28860;43.212;27.934;2023-08-07T08:51:09;22.77;;;3.35;;
43256;SDS011;28860;43.212;27.934;2023-08-07T08:53:37;8.32;;;1.55;;
43256;SDS011;28860;43.212;27.934;2023-08-07T08:56:03;24.17;;;2.90;;
43256;SDS011;28860;43.212;27.934;2023-08-07T08:58:30;1.65;;;1.55;;
43256;SDS011;28860;43.212;27.934;2023-08-07T09:00:56;8.55;;;1.80;;
43256;SDS011;28860;43.212;27.934;2023-08-07T09:03:23;7.45;;;1.83;;
43256;SDS011;28860;43.212;27.934;2023-08-07T09:05:50;7.97;;;1.70;;
43256;SDS011;28860;43.212;27.934;2023-08-07T09:08:19;4.97;;;1.80;;
43256;SDS011;28860;43.212;27.934;2023-08-07T09:10:47;4.55;;;1.77;;
43256;SDS011;28860;43.212;27.934;2023-08-07T09:13:16;6.85;;;1.92;;
43256;SDS011;28860;43.212;27.934;2023-08-07T09:15:46;1.70;;;1.60;;
43256;SDS011;28860;43.212;27.934;2023-08-07T09:18:15;7.18;;;1.90;;
43256;SDS011;28860;43.212;27.934;2023-08-07T09:20:42;11.73;;;2.20;;
43256;SDS011;28860;43.212;27.934;2023-08-07T09:23:08;6.75;;;1.52;;
43256;SDS011;28860;43.212;27.934;2023-08-07T09:25:34;7.93;;;1.80;;
43256;SDS011;28860;43.212;27.934;2023-08-07T09:28:04;11.70;;;2.00;;
43256;SDS011;28860;43.212;27.934;2023-08-07T09:30:31;6.57;;;1.73;;
43256;SDS011;28860;43.212;27.934;2023-08-07T09:32:59;4.93;;;1.65;;
43256;SDS011;28860;43.212;27.934;2023-08-07T09:35:25;7.85;;;2.22;;
43256;SDS011;28860;43.212;27.934;2023-08-07T09:37:51;4.45;;;1.80;;
43256;SDS011;28860;43.212;27.934;2023-08-07T09:40:20;8.15;;;1.73;;
43256;SDS011;28860;43.212;27.934;2023-08-07T09:42:49;3.45;;;1.80;;
43256;SDS011;28860;43.212;27.934;2023-08-07T09:47:46;6.47;;;1.70;;
43256;SDS011;28860;43.212;27.934;2023-08-07T09:50:21;5.15;;;1.83;;
43256;SDS011;28860;43.212;27.934;2023-08-07T09:52:50;10.13;;;1.80;;
43256;SDS011;28860;43.212;27.934;2023-08-07T09:55:16;5.90;;;1.70;;
43256;SDS011;28860;43.212;27.934;2023-08-07T09:57:44;5.38;;;1.70;;
43256;SDS011;28860;43.212;27.934;2023-08-07T10:00:12;15.10;;;1.95;;
43256;SDS011;28860;43.212;27.934;2023-08-07T10:02:42;12.57;;;1.75;;
43256;SDS011;28860;43.212;27.934;2023-08-07T10:05:11;9.32;;;1.80;;
43256;SDS011;28860;43.212;27.934;2023-08-07T10:07:38;1.90;;;1.67;;
43256;SDS011;28860;43.212;27.934;2023-08-07T10:10:07;5.63;;;1.50;;
43256;SDS011;28860;43.212;27.934;2023-08-07T10:12:38;11.50;;;2.17;;
43256;SDS011;28860;43.212;27.934;2023-08-07T10:15:05;6.28;;;1.70;;
43256;SDS011;28860;43.212;27.934;2023-08-07T10:17:32;3.17;;;1.40;;
43256;SDS011;28860;43.212;27.934;2023-08-07T10:19:58;2.58;;;1.60;;
43256;SDS011;28860;43.212;27.934;2023-08-07T10:22:24;1.63;;;1.10;;
43256;SDS011;28860;43.212;27.934;2023-08-07T10:24:52;6.05;;;1.40;;
43256;SDS011;28860;43.212;27.934;2023-08-07T10:27:21;5.28;;;1.50;;
43256;SDS011;28860;43.212;27.934;2023-08-07T10:29:49;2.55;;;1.30;;
43256;SDS011;28860;43.212;27.934;2023-08-07T10:32:17;1.90;;;1.25;;
43256;SDS011;28860;43.212;27.934;2023-08-07T10:34:51;8.18;;;1.48;;
43256;SDS011;28860;43.212;27.934;2023-08-07T10:40:11;1.60;;;1.40;;
43256;SDS011;28860;43.212;27.934;2023-08-07T10:45:26;2.45;;;1.60;;
43256;SDS011;28860;43.212;27.934;2023-08-07T10:48:05;15.43;;;1.83;;
43256;SDS011;28860;43.212;27.934;2023-08-07T10:50:51;1.98;;;1.50;;
43256;SDS011;28860;43.212;27.934;2023-08-07T10:53:35;3.13;;;1.30;;
43256;SDS011;28860;43.212;27.934;2023-08-07T10:58:35;4.35;;;1.50;;
43256;SDS011;28860;43.212;27.934;2023-08-07T11:01:18;1.73;;;1.38;;
43256;SDS011;28860;43.212;27.934;2023-08-07T11:03:57;4.35;;;1.50;;
43256;SDS011;28860;43.212;27.934;2023-08-07T11:08:55;2.63;;;1.17;;
43256;SDS011;28860;43.212;27.934;2023-08-07T11:11:24;2.83;;;1.50;;
43256;SDS011;28860;43.212;27.934;2023-08-07T11:13:52;8.45;;;1.65;;
43256;SDS011;28860;43.212;27.934;2023-08-07T11:16:17;3.60;;;1.42;;
43256;SDS011;28860;43.212;27.934;2023-08-07T11:18:46;11.27;;;1.83;;
43256;SDS011;28860;43.212;27.934;2023-08-07T11:21:13;2.95;;;1.40;;
43256;SDS011;28860;43.212;27.934;2023-08-07T11:23:39;3.65;;;1.70;;
43256;SDS011;28860;43.212;27.934;2023-08-07T11:26:06;1.73;;;1.25;;
43256;SDS011;28860;43.212;27.934;2023-08-07T11:28:35;5.22;;;1.60;;
43256;SDS011;28860;43.212;27.934;2023-08-07T11:31:01;4.40;;;1.55;;
43256;SDS011;28860;43.212;27.934;2023-08-07T11:33:27;3.15;;;1.20;;
43256;SDS011;28860;43.212;27.934;2023-08-07T11:35:54;2.67;;;1.67;;
43256;SDS011;28860;43.212;27.934;2023-08-07T11:38:33;8.32;;;1.80;;
43256;SDS011;28860;43.212;27.934;2023-08-07T11:41:02;6.22;;;1.27;;
43256;SDS011;28860;43.212;27.934;2023-08-07T11:43:29;2.28;;;1.45;;
43256;SDS011;28860;43.212;27.934;2023-08-07T11:45:57;3.78;;;1.50;;
43256;SDS011;28860;43.212;27.934;2023-08-07T11:48:24;14.60;;;1.80;;
43256;SDS011;28860;43.212;27.934;2023-08-07T11:50:51;5.88;;;1.13;;
43256;SDS011;28860;43.212;27.934;2023-08-07T11:53:18;11.55;;;1.67;;
43256;SDS011;28860;43.212;27.934;2023-08-07T11:56:26;6.15;;;1.30;;
43256;SDS011;28860;43.212;27.934;2023-08-07T11:58:46;2.42;;;1.30;;
43256;SDS011;28860;43.212;27.934;2023-08-07T12:01:17;3.50;;;1.20;;
43256;SDS011;28860;43.212;27.934;2023-08-07T12:03:51;3.90;;;1.37;;
43256;SDS011;28860;43.212;27.934;2023-08-07T12:06:17;4.15;;;1.20;;
43256;SDS011;28860;43.212;27.934;2023-08-07T12:08:48;10.77;;;1.58;;
43256;SDS011;28860;43.212;27.934;2023-08-07T12:11:19;5.07;;;1.42;;
43256;SDS011;28860;43.212;27.934;2023-08-07T12:13:46;10.10;;;1.80;;
43256;SDS011;28860;43.212;27.934;2023-08-07T12:16:15;12.10;;;1.40;;
43256;SDS011;28860;43.212;27.934;2023-08-07T12:18:45;5.20;;;1.23;;
43256;SDS011;28860;43.212;27.934;2023-08-07T12:21:15;6.18;;;1.52;;
43256;SDS011;28860;43.212;27.934;2023-08-07T12:23:44;18.48;;;2.42;;
43256;SDS011;28860;43.212;27.934;2023-08-07T12:26:13;3.78;;;1.30;;
43256;SDS011;28860;43.212;27.934;2023-08-07T12:28:39;3.47;;;1.10;;
43256;SDS011;28860;43.212;27.934;2023-08-07T12:31:04;4.22;;;1.10;;
43256;SDS011;28860;43.212;27.934;2023-08-07T12:33:33;7.07;;;1.45;;
43256;SDS011;28860;43.212;27.934;2023-08-07T12:35:59;21.05;;;1.80;;
43256;SDS011;28860;43.212;27.934;2023-08-07T12:38:25;5.65;;;1.20;;
43256;SDS011;28860;43.212;27.934;2023-08-07T12:40:51;6.13;;;1.10;;
43256;SDS011;28860;43.212;27.934;2023-08-07T12:43:20;3.55;;;1.20;;
43256;SDS011;28860;43.212;27.934;2023-08-07T12:45:46;4.22;;;1.52;;
43256;SDS011;28860;43.212;27.934;2023-08-07T12:48:12;4.20;;;1.00;;
43256;SDS011;28860;43.212;27.934;2023-08-07T12:50:43;2.63;;;1.17;;
43256;SDS011;28860;43.212;27.934;2023-08-07T12:53:11;3.78;;;1.20;;
43256;SDS011;28860;43.212;27.934;2023-08-07T12:55:37;2.08;;;1.23;;
43256;SDS011;28860;43.212;27.934;2023-08-07T12:58:02;3.95;;;1.73;;
43256;SDS011;28860;43.212;27.934;2023-08-07T13:00:28;3.65;;;1.48;;
43256;SDS011;28860;43.212;27.934;2023-08-07T13:02:56;5.18;;;1.40;;
43256;SDS011;28860;43.212;27.934;2023-08-07T13:05:25;4.95;;;1.30;;
43256;SDS011;28860;43.212;27.934;2023-08-07T13:07:53;5.50;;;1.50;;
43256;SDS011;28860;43.212;27.934;2023-08-07T13:10:20;2.08;;;1.20;;
43256;SDS011;28860;43.212;27.934;2023-08-07T13:12:48;4.32;;;0.93;;
43256;SDS011;28860;43.212;27.934;2023-08-07T13:15:15;5.18;;;1.10;;
43256;SDS011;28860;43.212;27.934;2023-08-07T13:17:44;4.28;;;1.30;;
43256;SDS011;28860;43.212;27.934;2023-08-07T13:20:11;3.67;;;0.90;;
43256;SDS011;28860;43.212;27.934;2023-08-07T13:22:38;1.60;;;1.38;;
43256;SDS011;28860;43.212;27.934;2023-08-07T13:25:05;1.48;;;0.80;;
43256;SDS011;28860;43.212;27.934;2023-08-07T13:27:34;4.07;;;1.17;;
43256;SDS011;28860;43.212;27.934;2023-08-07T13:30:00;26.27;;;2.20;;
43256;SDS011;28860;43.212;27.934;2023-08-07T13:32:29;2.85;;;1.33;;
43256;SDS011;28860;43.212;27.934;2023-08-07T13:34:55;3.00;;;0.80;;
43256;SDS011;28860;43.212;27.934;2023-08-07T13:37:21;2.15;;;1.05;;
43256;SDS011;28860;43.212;27.934;2023-08-07T13:39:46;1.92;;;0.95;;
43256;SDS011;28860;43.212;27.934;2023-08-07T13:42:18;2.90;;;1.02;;
43256;SDS011;28860;43.212;27.934;2023-08-07T13:44:44;2.45;;;1.20;;
43256;SDS011;28860;43.212;27.934;2023-08-07T13:47:12;4.32;;;1.25;;
43256;SDS011;28860;43.212;27.934;2023-08-07T13:49:39;2.97;;;1.38;;
43256;SDS011;28860;43.212;27.934;2023-08-07T13:52:07;4.18;;;1.42;;
43256;SDS011;28860;43.212;27.934;2023-08-07T13:54:33;1.15;;;0.90;;
43256;SDS011;28860;43.212;27.934;2023-08-07T13:56:59;3.40;;;1.48;;
43256;SDS011;28860;43.212;27.934;2023-08-07T13:59:24;7.35;;;1.92;;
43256;SDS011;28860;43.212;27.934;2023-08-07T14:01:50;4.65;;;1.73;;
43256;SDS011;28860;43.212;27.934;2023-08-07T14:04:17;3.50;;;1.60;;
43256;SDS011;28860;43.212;27.934;2023-08-07T14:06:42;3.25;;;1.30;;
43256;SDS011;28860;43.212;27.934;2023-08-07T14:09:09;3.53;;;1.10;;
43256;SDS011;28860;43.212;27.934;2023-08-07T14:11:36;2.28;;;1.15;;
43256;SDS011;28860;43.212;27.934;2023-08-07T14:14:03;4.05;;;1.42;;
43256;SDS011;28860;43.212;27.934;2023-08-07T14:16:29;2.30;;;1.00;;
43256;SDS011;28860;43.212;27.934;2023-08-07T14:18:54;5.07;;;1.20;;
43256;SDS011;28860;43.212;27.934;2023-08-07T14:21:20;5.95;;;1.40;;
43256;SDS011;28860;43.212;27.934;2023-08-07T14:23:46;3.80;;;1.33;;
43256;SDS011;28860;43.212;27.934;2023-08-07T14:26:13;3.08;;;1.23;;
43256;SDS011;28860;43.212;27.934;2023-08-07T14:28:39;5.28;;;1.63;;
43256;SDS011;28860;43.212;27.934;2023-08-07T14:31:07;2.10;;;1.27;;
43256;SDS011;28860;43.212;27.934;2023-08-07T14:33:33;3.83;;;1.13;;
43256;SDS011;28860;43.212;27.934;2023-08-07T14:35:59;8.32;;;1.20;;
43256;SDS011;28860;43.212;27.934;2023-08-07T14:38:27;3.30;;;1.25;;
43256;SDS011;28860;43.212;27.934;2023-08-07T14:40:54;1.85;;;1.08;;
43256;SDS011;28860;43.212;27.934;2023-08-07T14:43:20;2.60;;;1.20;;
43256;SDS011;28860;43.212;27.934;2023-08-07T14:45:46;6.90;;;1.17;;
43256;SDS011;28860;43.212;27.934;2023-08-07T14:48:13;5.07;;;1.10;;
43256;SDS011;28860;43.212;27.934;2023-08-07T14:50:39;2.85;;;1.15;;